Impacts TAF Board INFO
FOR SITUATIONAL AWARENESS. NOT TO BE USED FOR FLIGHT PLANNING PURPOSES.
IDs:

KDTW - Detroit Metro/Wayne, MI, US

Issued at 1731 UTC 24 Jun 2018
Updated at 1832 UTC 24 Jun 2018
Potential Impact None Slight Moderate High
Time1753Z 24/19Z 24/20Z 24/21Z 24/22Z 24/23Z 25/00Z 25/01Z 25/02Z 25/03Z 25/04Z 25/05Z 25/06Z 25/07Z>>
Type OBS PRVL PRVL PRVL PRVL PRVL PRVL PRVL PRVL PRVL PRVL PRVL PRVL PRVL
VIS 10 >6 >6 >6 >6 >6 >6 >6 >6 >6 >6 >6 >6 >6
CIG 22 25 25 35 35 35 35 -- -- -- -- -- -- --
Cover OVC OVC OVC BKN BKN BKN BKN SCT SCT SCT SCT SCT SCT SCT
FltCat MVFR MVFR MVFR VFR VFR VFR VFR VFR VFR VFR VFR VFR VFR VFR
WX -- VCSH VCSH -- -- -- -- -- -- -- -- -- -- --
WDir 330 10 10 20 20 20 20 30 30 30 30 30 30 30
WSpd 10 7 7 8 8 8 8 5 5 5 5 5 5 5
WGst -- -- -- -- -- -- -- -- -- -- -- -- -- --

Raw TAF
KDTW 241731Z 2418/2524 01007KT P6SM VCSH BKN025 OVC035
  FM242100 02008KT P6SM BKN035 BKN060
  FM250100 03005KT P6SM FEW120 SCT250
  FM251500 05010KT P6SM SCT030


Raw METAR
KDTW 241753Z 33010KT 10SM OVC022 22/16 A2990 RMK AO2 SLP121 T02170161 10233 20200 50009 $
KDTW 241653Z 30009KT 10SM OVC024 23/16 A2990 RMK AO2 SLP122 T02280161 $
KDTW 241553Z 29008KT 10SM BKN022 BKN140 23/16 A2989 RMK AO2 SLP119 T02280161 $

METAR Board
Radar Display
Forecast Discussion

FOR SITUATIONAL AWARENESS. NOT TO BE USED FOR FLIGHT PLANNING PURPOSES.